Flight Track Log - Related Links

Times and Time Zones

All times are in EDT time to prevent confusion due to time zone crossing. See the UAL582 flight status page for this flight to view local times or setup timezone preferences in your user account.

Time Position Orientation Groundspeed Altitude Reporting Facility
EDT Latitude Longitude Course Direction KTS MPH feet Rate Location/Type
Fri 05:07:53 PM 43.6333 -79.7000 270° West 180 207 4,000  Level Toronto Center
Fri 05:08:53 PM 43.6500 -79.7667 289° West 250 288 6,500 2,900 Climbing Toronto Center
Fri 05:09:00 PM 43.7014 -79.9832 277° West  Level FlightAware Approximate
Fri 05:09:53 PM 43.7000 -79.8667 305° West 280 322 9,800  Level Toronto Center
Fri 05:10:00 PM 43.7117 -80.1065 277° West  Level FlightAware Approximate
Fri 05:10:53 PM 43.7167 -79.9833 281° West 290 334 13,100  Level Toronto Center
Fri 05:11:00 PM 43.7179 -80.2302 277° West  Level FlightAware Approximate
Fri 05:11:53 PM 43.7167 -80.1000 270° West 280 322 16,200  Level Toronto Center
Fri 05:12:00 PM 43.7306 -80.3699 277° West  Level FlightAware Approximate
Fri 05:12:53 PM 43.7333 -80.1833 285° West 300 345 19,100  Level Toronto Center
Fri 05:13:00 PM 43.7333 -80.5105 270° West  Level FlightAware Approximate
Fri 05:13:53 PM 43.7333 -80.3000 270° West 310 357 21,600  Level Toronto Center
Fri 05:14:53 PM 43.7333 -80.4333 270° West 310 357 23,900 1,700 Climbing Toronto Center
Fri 05:15:53 PM 43.7333 -80.5500 270° West 330 380 25,000 1,200 Climbing Toronto Center
Fri 05:16:53 PM 43.7167 -80.7000 261° West 360 414 26,300 1,550 Climbing Toronto Center
Fri 05:17:53 PM 43.6667 -80.8333 243° Southwest 370 426 28,100 1,600 Climbing Toronto Center
Fri 05:18:53 PM 43.6333 -80.9667 251° West 380 437 29,500 1,400 Climbing Toronto Center
Fri 05:19:53 PM 43.6000 -81.1000 251° West 390 449 30,900 1,350 Climbing Toronto Center
Fri 05:20:53 PM 43.5667 -81.2667 255° West 400 460 32,200 1,600 Climbing Toronto Center
Fri 05:21:53 PM 43.5500 -81.4000 260° West 400 460 34,100 1,550 Climbing Toronto Center
Fri 05:22:53 PM 43.5167 -81.5667 255° West 390 449 35,300 1,050 Climbing Toronto Center
Fri 05:23:53 PM 43.4833 -81.7000 251° West 400 460 36,200 900 Climbing Toronto Center
Fri 05:24:53 PM 43.4500 -81.8667 255° West 400 460 37,100 900 Climbing Toronto Center
Fri 05:25:53 PM 43.4000 -82.0000 243° Southwest 400 460 38,000 450 Climbing Toronto Center
Fri 05:26:53 PM 43.3667 -82.1500 253° West 400 460 38,000  Level Toronto Center
Fri 05:27:53 PM 43.3500 -82.3000 261° West 400 460 38,000 -450 Level Toronto Center
Fri 05:28:53 PM 43.3167 -82.4333 251° West 400 460 37,100 -950 Descending Toronto Center
Fri 05:29:53 PM 43.2833 -82.5833 253° West 410 472 36,100 -960 Descending Toronto Center
Fri 05:30:33 PM 43.2664 -82.6758 256° West 405 466 35,500 -900 Descending Cleveland Center
Fri 05:31:33 PM 43.2261 -82.8225 249° West 410 472 34,600 -950 Descending Cleveland Center
Fri 05:32:33 PM 43.1881 -82.9608 249° West 403 464 33,600 -1,000 Descending Cleveland Center
Fri 05:33:33 PM 43.1475 -83.0986 248° West 403 464 32,600 -800 Descending Cleveland Center
Fri 05:34:33 PM 43.1089 -83.2422 250° West 403 464 32,000 -300 Descending Cleveland Center
Fri 05:35:33 PM 43.0703 -83.3856 250° West 403 464 32,000  Level Cleveland Center
Fri 05:36:33 PM 43.0292 -83.5228 248° West 403 464 32,000  Level Cleveland Center
Fri 05:37:33 PM 42.9900 -83.6628 249° West 403 464 32,000 -50 Level Cleveland Center
Fri 05:38:33 PM 42.9592 -83.8061 254° West 403 464 31,900  Descending Cleveland Center
Fri 05:39:33 PM 42.9444 -83.9586 263° West 403 464 32,000  Climbing Cleveland Center
Fri 05:41:20 PM 42.9194 -84.2317 263° West 400 460 31,900 -36 Descending Chicago Center
Fri 05:42:22 PM 42.9042 -84.3819 262° West 401 461 31,900 48 Level Chicago Center
Fri 05:43:24 PM 42.8869 -84.5333 261° West 403 464 32,000 48 Climbing Chicago Center
Fri 05:44:26 PM 42.8728 -84.6853 263° West 406 467 32,000  Level Chicago Center
Fri 05:45:29 PM 42.8553 -84.8675 263° West 405 466 32,000  Level Chicago Center
Fri 05:46:31 PM 42.8383 -85.0200 261° West 406 467 32,000 -48 Level Chicago Center
Fri 05:47:33 PM 42.8214 -85.1733 261° West 409 471 31,900 -48 Descending Chicago Center
Fri 05:48:35 PM 42.8047 -85.3256 262° West 407 468 31,900 48 Level Chicago Center
Fri 05:49:37 PM 42.7883 -85.4800 262° West 411 473 32,000 -726 Climbing Chicago Center
Fri 05:50:39 PM 42.7628 -85.6286 257° West 404 465 30,400 -1,790 Descending Chicago Center
Fri 05:51:41 PM 42.7356 -85.7792 256° West 406 467 28,300 -2,419 Descending Chicago Center
Fri 05:52:43 PM 42.7044 -85.9486 256° West 386 444 25,400 -2,516 Descending Chicago Center
Fri 05:53:45 PM 42.6792 -86.0878 256° West 378 435 23,100 -2,468 Descending Chicago Center
Fri 05:54:47 PM 42.6553 -86.2194 256° West 362 417 20,300 -1,548 Descending Chicago Center
Fri 05:55:49 PM 42.6308 -86.3461 255° West 349 402 19,900 -960 Descending Chicago Center
Fri 05:56:52 PM 42.6075 -86.4700 256° West 341 392 18,300 -1,776 Descending Chicago Center
Fri 05:57:54 PM 42.5842 -86.5931 256° West 337 388 16,200 -1,935 Descending Chicago Center
Fri 05:58:56 PM 42.5631 -86.7122 257° West 328 377 14,300 -2,032 Descending Chicago Center
Fri 05:59:58 PM 42.5283 -86.8478 251° West 317 365 12,000 -1,667 Descending Chicago Center
Fri 06:01:02 PM 42.4986 -86.9539 249° West 305 351 10,800 -810 Descending Chicago Center
Fri 06:02:04 PM 42.4686 -87.0597 249° West 302 348 10,300 -339 Descending Chicago Center
Fri 06:03:06 PM 42.4394 -87.1681 250° West 307 353 10,100 -532 Descending Chicago Center
Fri 06:04:08 PM 42.3867 -87.2272 220° Southwest 278 320 9,200 -726 Descending Chicago Center
Fri 06:05:10 PM 42.3003 -87.2283 181° South 282 325 8,600 -774 Descending Chicago Center
Fri 06:06:12 PM 42.2244 -87.2328 182° South 276 318 7,600 -774 Descending Chicago Center
Fri 06:07:14 PM 42.1342 -87.2389 183° South 271 312 7,000 -288 Descending Chicago Center
Fri 06:08:17 PM 42.0664 -87.2714 200° South 260 299 7,000  Level Chicago Center
Fri 06:09:19 PM 42.0153 -87.3181 214° Southwest 227 261 7,000  Level Chicago Center
Fri 06:10:11 PM 41.9833 -87.3833 237° Southwest 202 232 7,000  Level Chicago TRACON
Fri 06:11:11 PM 41.9833 -87.4500 270° West 175 201 7,000 -200 Level Chicago TRACON
Fri 06:12:11 PM 41.9833 -87.5167 270° West 176 203 6,600 -571 Descending Chicago TRACON
Fri 06:13:17 PM 41.9833 -87.5833 270° West 163 188 5,800 -864 Descending Chicago TRACON
Fri 06:14:23 PM 41.9833 -87.6333 270° West 154 177 4,700 -1,050 Descending Chicago TRACON
Fri 06:15:17 PM 41.9833 -87.6833 270° West 149 171 3,700 -1,111 Descending Chicago TRACON

Login

Don't have an account? Register now (free) for customized features, flight alerts, and more!